createdAt,value
2022-08-29T00:00:17.680Z,100.00
2022-08-29T00:01:17.027Z,100.00
2022-08-29T00:02:21.466Z,100.00
2022-08-29T00:03:26.056Z,100.00
2022-08-29T00:04:29.172Z,100.00
2022-08-29T00:05:33.948Z,100.00
2022-08-29T00:06:38.747Z,100.00
2022-08-29T00:07:41.339Z,100.00
2022-08-29T00:08:44.005Z,100.00
2022-08-29T00:09:46.676Z,100.00
2022-08-29T00:10:49.754Z,100.00
2022-08-29T00:11:52.422Z,100.00
2022-08-29T00:12:54.984Z,100.00
2022-08-29T00:13:59.499Z,100.00
2022-08-29T00:15:01.992Z,100.00
2022-08-29T00:16:05.069Z,100.00
2022-08-29T00:17:07.911Z,100.00
2022-08-29T00:18:10.532Z,100.00
2022-08-29T00:19:13.210Z,100.00
2022-08-29T00:20:17.455Z,100.00
2022-08-29T00:21:20.160Z,100.00
2022-08-29T00:22:22.797Z,100.00
2022-08-29T00:23:25.770Z,100.00
2022-08-29T00:24:28.296Z,100.00
2022-08-29T00:25:31.007Z,100.00
2022-08-29T00:26:33.998Z,100.00
2022-08-29T00:27:36.761Z,100.00
2022-08-29T00:28:39.424Z,100.00
2022-08-29T00:29:42.049Z,100.00
2022-08-29T00:30:45.068Z,100.00
2022-08-29T00:31:47.777Z,100.00
2022-08-29T00:32:50.439Z,100.00
2022-08-29T00:33:53.279Z,100.00
2022-08-29T00:34:55.850Z,100.00
2022-08-29T00:35:58.474Z,100.00
2022-08-29T00:37:02.316Z,100.00
2022-08-29T00:38:06.214Z,100.00
2022-08-29T00:39:09.348Z,100.00
2022-08-29T00:40:13.137Z,100.00
2022-08-29T00:41:16.477Z,100.00
2022-08-29T00:42:19.140Z,100.00
2022-08-29T00:43:21.707Z,100.00
2022-08-29T00:44:24.233Z,100.00
2022-08-29T00:45:27.048Z,100.00
2022-08-29T00:46:31.253Z,100.00
2022-08-29T00:47:33.922Z,100.00
2022-08-29T00:48:36.549Z,100.00
2022-08-29T00:49:39.178Z,100.00
2022-08-29T00:50:42.237Z,100.00
2022-08-29T00:51:44.761Z,100.00
2022-08-29T00:52:47.333Z,100.00
2022-08-29T00:53:50.817Z,100.00
2022-08-29T00:54:53.424Z,100.00
2022-08-29T00:55:56.036Z,100.00
2022-08-29T00:56:58.865Z,100.00
2022-08-29T00:58:01.440Z,100.00
2022-08-29T00:59:04.100Z,100.00
2022-08-29T01:00:06.872Z,100.00
2022-08-29T01:01:09.911Z,100.00
2022-08-29T01:02:13.475Z,100.00
2022-08-29T01:03:16.422Z,100.00
2022-08-29T01:04:24.164Z,100.00
2022-08-29T01:05:23.700Z,100.00
2022-08-29T01:06:26.684Z,100.00
2022-08-29T01:07:29.244Z,100.00
2022-08-29T01:08:31.915Z,100.00
2022-08-29T01:09:34.479Z,100.00
2022-08-29T01:10:37.253Z,100.00
2022-08-29T01:11:39.819Z,100.00
2022-08-29T01:12:42.488Z,100.00
2022-08-29T01:13:45.057Z,100.00
2022-08-29T01:14:47.928Z,100.00
2022-08-29T01:15:50.701Z,100.00
2022-08-29T01:16:53.623Z,100.00
2022-08-29T01:17:56.244Z,100.00
2022-08-29T01:18:58.812Z,100.00
2022-08-29T01:20:01.417Z,100.00
2022-08-29T01:21:04.048Z,100.00
2022-08-29T01:22:07.082Z,100.00
2022-08-29T01:23:09.694Z,100.00
2022-08-29T01:24:12.218Z,100.00
2022-08-29T01:25:14.827Z,100.00
2022-08-29T01:26:18.185Z,100.00
2022-08-29T01:27:20.785Z,100.00
2022-08-29T01:28:23.351Z,100.00
2022-08-29T01:29:25.912Z,100.00
2022-08-29T01:30:30.529Z,100.00
2022-08-29T01:31:37.449Z,100.00
2022-08-29T01:32:37.563Z,100.00
2022-08-29T01:33:40.175Z,100.00
2022-08-29T01:34:42.771Z,100.00
2022-08-29T01:35:45.311Z,100.00
2022-08-29T01:36:48.282Z,100.00
2022-08-29T01:37:50.955Z,100.00
2022-08-29T01:38:53.623Z,100.00
2022-08-29T01:39:56.233Z,100.00
2022-08-29T01:40:59.578Z,100.00
2022-08-29T01:42:02.246Z,100.00
2022-08-29T01:43:04.811Z,100.00
2022-08-29T01:44:07.585Z,100.00
2022-08-29T01:45:10.288Z,100.00
2022-08-29T01:46:14.775Z,100.00
2022-08-29T01:47:17.432Z,100.00
2022-08-29T01:48:21.331Z,100.00
2022-08-29T01:49:23.846Z,100.00
2022-08-29T01:50:27.595Z,100.00
2022-08-29T01:51:30.160Z,100.00
2022-08-29T01:52:32.930Z,100.00
2022-08-29T01:53:35.502Z,100.00
2022-08-29T01:54:38.166Z,100.00
2022-08-29T01:55:40.938Z,100.00
2022-08-29T01:56:43.935Z,100.00
2022-08-29T01:57:46.591Z,100.00
2022-08-29T01:58:49.254Z,100.00
2022-08-29T01:59:51.823Z,100.00
2022-08-29T02:00:54.946Z,100.00
2022-08-29T02:01:57.950Z,100.00
2022-08-29T02:03:02.291Z,100.00
2022-08-29T02:04:04.856Z,100.00
2022-08-29T02:05:07.422Z,100.00
2022-08-29T02:06:11.589Z,100.00
2022-08-29T02:07:14.218Z,100.00
2022-08-29T02:08:18.707Z,100.00
2022-08-29T02:09:21.186Z,100.00
2022-08-29T02:10:25.074Z,100.00
2022-08-29T02:11:27.694Z,100.00
2022-08-29T02:12:30.307Z,100.00
2022-08-29T02:13:32.830Z,100.00
2022-08-29T02:14:35.339Z,100.00
2022-08-29T02:15:38.104Z,100.00
2022-08-29T02:16:41.088Z,100.00
2022-08-29T02:17:43.750Z,100.00
2022-08-29T02:18:46.376Z,100.00
2022-08-29T02:19:48.988Z,100.00
2022-08-29T02:20:52.030Z,100.00
2022-08-29T02:21:54.739Z,100.00
2022-08-29T02:22:57.714Z,100.00
2022-08-29T02:24:11.284Z,100.00
2022-08-29T02:25:04.688Z,100.00
2022-08-29T02:26:07.724Z,100.00
2022-08-29T02:27:10.336Z,100.00
2022-08-29T02:28:12.900Z,100.00
2022-08-29T02:29:15.467Z,100.00
2022-08-29T02:30:19.424Z,100.00
2022-08-29T02:31:22.156Z,100.00
2022-08-29T02:32:25.112Z,100.00
2022-08-29T02:33:29.321Z,100.00
2022-08-29T02:34:33.834Z,100.00
2022-08-29T02:35:42.575Z,100.00
2022-08-29T02:36:44.032Z,100.00
2022-08-29T02:37:46.763Z,100.00
2022-08-29T02:38:49.321Z,100.00
2022-08-29T02:39:51.991Z,100.00
2022-08-29T02:40:55.099Z,100.00
2022-08-29T02:41:57.619Z,100.00
2022-08-29T02:43:00.714Z,100.00
2022-08-29T02:44:03.243Z,100.00
2022-08-29T02:45:05.871Z,100.00
2022-08-29T02:46:09.644Z,100.00
2022-08-29T02:47:12.214Z,100.00
2022-08-29T02:48:14.931Z,100.00
2022-08-29T02:49:17.654Z,100.00
2022-08-29T02:50:21.556Z,100.00
2022-08-29T02:51:24.219Z,100.00
2022-08-29T02:52:26.853Z,100.00
2022-08-29T02:53:30.480Z,100.00
2022-08-29T02:54:33.052Z,100.00
2022-08-29T02:55:35.776Z,100.00
2022-08-29T02:56:38.835Z,100.00
2022-08-29T02:57:41.363Z,100.00
2022-08-29T02:58:44.033Z,100.00
2022-08-29T02:59:46.903Z,100.00
2022-08-29T03:00:49.625Z,100.00
2022-08-29T03:01:52.502Z,100.00
2022-08-29T03:02:55.424Z,100.00
2022-08-29T03:03:58.095Z,100.00
2022-08-29T03:05:00.661Z,100.00
2022-08-29T03:06:03.432Z,100.00
2022-08-29T03:07:05.999Z,100.00
2022-08-29T03:08:08.975Z,100.00
2022-08-29T03:09:11.476Z,100.00
2022-08-29T03:10:15.039Z,100.00
2022-08-29T03:11:17.703Z,100.00
2022-08-29T03:12:20.267Z,100.00
2022-08-29T03:13:22.935Z,100.00
2022-08-29T03:14:25.605Z,100.00
2022-08-29T03:15:28.235Z,100.00
2022-08-29T03:16:32.276Z,100.00
2022-08-29T03:17:34.908Z,100.00
2022-08-29T03:18:37.516Z,100.00
2022-08-29T03:19:40.181Z,100.00
2022-08-29T03:20:43.059Z,100.00
2022-08-29T03:21:45.723Z,100.00
2022-08-29T03:22:48.601Z,100.00
2022-08-29T03:23:51.274Z,100.00
2022-08-29T03:24:53.896Z,100.00
2022-08-29T03:25:56.503Z,100.00
2022-08-29T03:26:59.174Z,100.00
2022-08-29T03:28:01.740Z,100.00
2022-08-29T03:29:04.307Z,100.00
2022-08-29T03:30:07.283Z,100.00
2022-08-29T03:31:10.039Z,100.00
2022-08-29T03:32:12.655Z,100.00
2022-08-29T03:33:15.191Z,100.00
2022-08-29T03:34:17.864Z,100.00
2022-08-29T03:35:20.551Z,100.00
2022-08-29T03:36:25.041Z,100.00
2022-08-29T03:37:27.603Z,100.00
2022-08-29T03:38:30.503Z,100.00
2022-08-29T03:39:33.068Z,100.00
2022-08-29T03:40:36.806Z,100.00
2022-08-29T03:41:40.027Z,100.00
2022-08-29T03:42:42.695Z,100.00
2022-08-29T03:43:45.361Z,100.00
2022-08-29T03:44:48.036Z,100.00
2022-08-29T03:45:50.766Z,100.00
2022-08-29T03:46:53.732Z,100.00
2022-08-29T03:47:56.651Z,100.00
2022-08-29T03:48:59.219Z,100.00
2022-08-29T03:50:01.786Z,100.00
2022-08-29T03:51:04.351Z,100.00
2022-08-29T03:52:07.028Z,100.00
2022-08-29T03:53:09.692Z,100.00
2022-08-29T03:54:12.361Z,100.00
2022-08-29T03:55:14.891Z,100.00
2022-08-29T03:56:18.752Z,100.00
2022-08-29T03:57:21.905Z,100.00
2022-08-29T03:58:24.471Z,100.00
2022-08-29T03:59:27.039Z,100.00
2022-08-29T04:00:30.220Z,100.00
2022-08-29T04:01:32.837Z,100.00
2022-08-29T04:02:35.620Z,100.00
2022-08-29T04:03:38.843Z,100.00
2022-08-29T04:04:41.470Z,100.00
2022-08-29T04:05:44.502Z,100.00
2022-08-29T04:06:48.080Z,100.00
2022-08-29T04:07:50.606Z,100.00
2022-08-29T04:08:53.215Z,100.00
2022-08-29T04:09:55.739Z,100.00
2022-08-29T04:10:58.756Z,100.00
2022-08-29T04:12:01.279Z,100.00
2022-08-29T04:13:04.095Z,100.00
2022-08-29T04:14:06.722Z,100.00
2022-08-29T04:15:09.330Z,100.00
2022-08-29T04:16:12.466Z,100.00
2022-08-29T04:17:15.388Z,100.00
2022-08-29T04:18:21.641Z,100.00
2022-08-29T04:19:22.483Z,100.00
2022-08-29T04:20:25.958Z,100.00
2022-08-29T04:21:29.137Z,100.00
2022-08-29T04:22:31.715Z,100.00
2022-08-29T04:23:34.388Z,100.00
2022-08-29T04:24:36.939Z,100.00
2022-08-29T04:25:39.505Z,100.00
2022-08-29T04:26:42.480Z,100.00
2022-08-29T04:27:45.050Z,100.00
2022-08-29T04:28:47.613Z,100.00
2022-08-29T04:29:50.145Z,100.00
2022-08-29T04:30:53.295Z,100.00
2022-08-29T04:31:56.144Z,100.00
2022-08-29T04:32:58.839Z,100.00
2022-08-29T04:34:01.479Z,100.00
2022-08-29T04:35:04.448Z,100.00
2022-08-29T04:36:09.205Z,100.00
2022-08-29T04:37:11.852Z,100.00
2022-08-29T04:38:14.614Z,100.00
2022-08-29T04:39:17.391Z,100.00
2022-08-29T04:40:20.912Z,100.00
2022-08-29T04:41:24.124Z,100.00
2022-08-29T04:42:26.983Z,100.00
2022-08-29T04:43:30.002Z,100.00
2022-08-29T04:44:32.792Z,100.00
2022-08-29T04:45:35.404Z,100.00
2022-08-29T04:46:38.458Z,100.00
2022-08-29T04:47:41.092Z,100.00
2022-08-29T04:48:43.784Z,100.00
2022-08-29T04:49:46.329Z,100.00
2022-08-29T04:50:49.422Z,100.00
2022-08-29T04:51:52.079Z,100.00
2022-08-29T04:52:54.635Z,100.00
2022-08-29T04:53:57.206Z,100.00
2022-08-29T04:54:59.772Z,100.00
2022-08-29T04:56:02.748Z,100.00
2022-08-29T04:57:05.318Z,100.00
2022-08-29T04:58:07.910Z,100.00
2022-08-29T04:59:12.287Z,100.00
2022-08-29T05:00:15.576Z,100.00
2022-08-29T05:01:18.298Z,100.00
2022-08-29T05:02:21.268Z,100.00
2022-08-29T05:03:23.889Z,100.00
2022-08-29T05:04:26.518Z,100.00
2022-08-29T05:05:29.170Z,100.00
2022-08-29T05:06:32.379Z,100.00
2022-08-29T05:07:35.063Z,100.00
2022-08-29T05:08:39.650Z,100.00
2022-08-29T05:09:42.217Z,100.00
2022-08-29T05:10:45.031Z,100.00
2022-08-29T05:11:47.707Z,100.00
2022-08-29T05:12:50.269Z,100.00
2022-08-29T05:13:52.868Z,100.00
2022-08-29T05:14:55.806Z,100.00
2022-08-29T05:15:58.458Z,100.00
2022-08-29T05:17:01.970Z,100.00
2022-08-29T05:18:04.646Z,100.00
2022-08-29T05:19:08.345Z,100.00
2022-08-29T05:20:13.410Z,100.00
2022-08-29T05:21:16.028Z,100.00
2022-08-29T05:22:18.549Z,100.00
2022-08-29T05:23:21.131Z,100.00
2022-08-29T05:24:23.728Z,100.00
2022-08-29T05:25:28.093Z,100.00
2022-08-29T05:26:32.752Z,100.00
2022-08-29T05:27:35.316Z,100.00
2022-08-29T05:28:37.840Z,100.00
2022-08-29T05:29:40.410Z,100.00
2022-08-29T05:30:43.436Z,100.00
2022-08-29T05:31:46.360Z,100.00
2022-08-29T05:32:48.973Z,100.00
2022-08-29T05:33:51.462Z,100.00
2022-08-29T05:34:54.107Z,100.00
2022-08-29T05:35:56.803Z,100.00
2022-08-29T05:37:00.058Z,100.00
2022-08-29T05:38:07.137Z,100.00
2022-08-29T05:39:07.032Z,100.00
2022-08-29T05:40:11.928Z,100.00
2022-08-29T05:41:14.635Z,100.00
2022-08-29T05:42:17.400Z,100.00
2022-08-29T05:43:20.375Z,100.00
2022-08-29T05:44:22.966Z,100.00
2022-08-29T05:45:25.506Z,100.00
2022-08-29T05:46:29.029Z,100.00
2022-08-29T05:47:31.667Z,100.00
2022-08-29T05:48:34.340Z,100.00
2022-08-29T05:49:36.902Z,100.00
2022-08-29T05:50:41.004Z,100.00
2022-08-29T05:51:43.571Z,100.00
2022-08-29T05:52:46.135Z,100.00
2022-08-29T05:53:48.702Z,100.00
2022-08-29T05:54:51.270Z,100.00
2022-08-29T05:55:53.838Z,100.00
2022-08-29T05:56:56.611Z,100.00
2022-08-29T05:57:59.244Z,100.00
2022-08-29T05:59:01.857Z,100.00
2022-08-29T06:00:04.925Z,100.00
2022-08-29T06:01:07.900Z,100.00
2022-08-29T06:02:10.666Z,100.00
2022-08-29T06:03:14.442Z,100.00
2022-08-29T06:04:17.137Z,100.00
2022-08-29T06:05:19.764Z,100.00
2022-08-29T06:06:23.049Z,100.00
2022-08-29T06:07:25.770Z,100.00
2022-08-29T06:08:28.726Z,100.00
2022-08-29T06:09:31.310Z,100.00
2022-08-29T06:10:34.997Z,100.00
2022-08-29T06:11:37.521Z,100.00
2022-08-29T06:12:40.131Z,100.00
2022-08-29T06:13:42.656Z,100.00
2022-08-29T06:14:50.090Z,100.00
2022-08-29T06:15:49.864Z,100.00
2022-08-29T06:16:52.651Z,100.00
2022-08-29T06:17:56.447Z,100.00
2022-08-29T06:18:59.015Z,100.00
2022-08-29T06:20:01.580Z,100.00
2022-08-29T06:21:04.775Z,100.00
2022-08-29T06:22:09.762Z,100.00
2022-08-29T06:23:11.946Z,100.00
2022-08-29T06:24:14.514Z,100.00
2022-08-29T06:25:38.035Z,100.00
2022-08-29T06:26:21.652Z,100.00
2022-08-29T06:27:24.466Z,100.00
2022-08-29T06:28:27.196Z,100.00
2022-08-29T06:29:29.835Z,100.00
2022-08-29T06:30:32.743Z,100.00
2022-08-29T06:31:35.367Z,100.00
2022-08-29T06:32:38.024Z,100.00
2022-08-29T06:33:40.891Z,100.00
2022-08-29T06:34:43.417Z,100.00
2022-08-29T06:35:46.026Z,100.00
2022-08-29T06:36:49.107Z,100.00
2022-08-29T06:37:51.657Z,100.00
2022-08-29T06:38:54.158Z,100.00
2022-08-29T06:39:57.163Z,100.00
2022-08-29T06:41:00.398Z,100.00
2022-08-29T06:42:03.059Z,100.00
2022-08-29T06:43:06.036Z,100.00
2022-08-29T06:44:08.719Z,100.00
2022-08-29T06:45:11.230Z,100.00
2022-08-29T06:46:15.614Z,100.00
2022-08-29T06:47:18.556Z,100.00
2022-08-29T06:48:21.123Z,100.00
2022-08-29T06:49:23.598Z,100.00
2022-08-29T06:50:26.576Z,99.67
2022-08-29T06:51:29.132Z,99.59
2022-08-29T06:52:31.698Z,99.55
2022-08-29T06:53:37.449Z,99.96
2022-08-29T06:54:39.187Z,99.37
2022-08-29T06:55:41.760Z,97.76
2022-08-29T06:56:44.729Z,98.63
2022-08-29T06:57:47.295Z,98.68
2022-08-29T06:58:50.043Z,99.03
2022-08-29T06:59:53.352Z,99.77
2022-08-29T07:00:56.323Z,97.87
2022-08-29T07:01:59.281Z,100.00
2022-08-29T07:03:02.289Z,100.00
2022-08-29T07:04:04.983Z,99.72
2022-08-29T07:05:08.029Z,98.83
2022-08-29T07:06:11.541Z,97.33
2022-08-29T07:07:14.189Z,100.00
2022-08-29T07:08:16.713Z,99.29
2022-08-29T07:09:19.279Z,99.58
2022-08-29T07:10:23.735Z,100.00
2022-08-29T07:11:26.549Z,100.00
2022-08-29T07:12:29.043Z,100.00
2022-08-29T07:13:33.589Z,100.00
2022-08-29T07:14:36.412Z,100.00
2022-08-29T07:15:39.691Z,100.00
2022-08-29T07:16:42.741Z,99.56
2022-08-29T07:17:45.393Z,100.00
2022-08-29T07:18:47.914Z,99.71
2022-08-29T07:19:50.523Z,97.98
2022-08-29T07:20:53.500Z,96.84
2022-08-29T07:21:58.414Z,97.15
2022-08-29T07:23:00.988Z,98.33
2022-08-29T07:24:03.655Z,96.72
2022-08-29T07:25:06.182Z,96.05
2022-08-29T07:26:09.308Z,96.68
2022-08-29T07:27:11.980Z,97.37
2022-08-29T07:28:14.774Z,97.79
2022-08-29T07:29:18.250Z,96.08
2022-08-29T07:31:34.201Z,91.91
2022-08-29T07:32:36.755Z,89.11
2022-08-29T07:33:39.256Z,90.24
2022-08-29T07:34:41.823Z,88.29
2022-08-29T07:35:44.405Z,87.85
2022-08-29T07:36:48.300Z,86.37
2022-08-29T07:37:50.959Z,86.69
2022-08-29T07:38:53.856Z,87.35
2022-08-29T07:39:56.411Z,86.94
2022-08-29T07:40:59.584Z,85.62
2022-08-29T07:42:02.865Z,87.28
2022-08-29T07:43:05.483Z,87.38
2022-08-29T07:44:08.103Z,85.74
2022-08-29T07:45:10.964Z,84.84
2022-08-29T07:46:15.157Z,83.90
2022-08-29T07:47:18.047Z,81.51
2022-08-29T07:48:23.055Z,80.18
2022-08-29T07:49:32.461Z,80.61
2022-08-29T07:50:30.767Z,81.17
2022-08-29T07:51:33.433Z,79.01
2022-08-29T07:52:36.101Z,78.58
2022-08-29T07:53:38.683Z,78.23
2022-08-29T07:54:41.343Z,78.13
2022-08-29T07:55:43.868Z,78.19
2022-08-29T07:56:46.679Z,80.05
2022-08-29T07:57:49.258Z,79.45
2022-08-29T07:58:52.020Z,79.12
2022-08-29T07:59:54.696Z,80.58
2022-08-29T08:00:57.667Z,81.89
2022-08-29T08:02:00.732Z,81.35
2022-08-29T08:03:05.424Z,78.30
2022-08-29T08:04:08.083Z,75.48
2022-08-29T08:05:10.692Z,75.57
2022-08-29T08:06:15.002Z,75.93
2022-08-29T08:07:18.487Z,78.36
2022-08-29T08:08:21.088Z,81.13
2022-08-29T08:09:23.750Z,81.94
2022-08-29T08:10:26.560Z,78.47
2022-08-29T08:11:29.164Z,76.83
2022-08-29T08:12:31.667Z,75.43
2022-08-29T08:13:34.463Z,73.66
2022-08-29T08:14:37.336Z,76.29
2022-08-29T08:15:39.952Z,75.27
2022-08-29T08:16:44.216Z,76.40
2022-08-29T08:17:47.394Z,77.03
2022-08-29T08:18:50.011Z,74.14
2022-08-29T08:19:52.674Z,75.73
2022-08-29T08:20:55.750Z,73.58
2022-08-29T08:21:58.277Z,73.56
2022-08-29T08:23:00.890Z,73.80
2022-08-29T08:24:03.556Z,73.22
2022-08-29T08:25:06.223Z,72.75
2022-08-29T08:26:09.368Z,73.53
2022-08-29T08:27:11.971Z,73.42
2022-08-29T08:28:14.690Z,73.95
2022-08-29T08:29:17.823Z,74.07
2022-08-29T08:30:21.276Z,73.88
2022-08-29T08:31:25.976Z,75.28
2022-08-29T08:32:32.221Z,76.42
2022-08-29T08:33:34.891Z,73.07
2022-08-29T08:34:37.827Z,71.73
2022-08-29T08:35:41.840Z,69.08
2022-08-29T08:36:45.317Z,69.40
2022-08-29T08:37:47.987Z,70.77
2022-08-29T08:38:50.549Z,68.20
2022-08-29T08:39:53.051Z,69.07
2022-08-29T08:40:56.200Z,72.54
2022-08-29T08:41:58.884Z,72.29
2022-08-29T08:43:01.599Z,71.83
2022-08-29T08:44:04.205Z,72.43
2022-08-29T08:45:06.829Z,69.80
2022-08-29T08:46:10.593Z,71.41
2022-08-29T08:47:13.237Z,70.14
2022-08-29T08:48:15.860Z,68.49
2022-08-29T08:49:18.429Z,68.22
2022-08-29T08:50:21.856Z,68.99
2022-08-29T08:51:24.525Z,68.19
2022-08-29T08:52:27.091Z,67.14
2022-08-29T08:53:29.617Z,67.80
2022-08-29T08:54:32.224Z,67.95
2022-08-29T08:55:34.796Z,66.34
2022-08-29T08:56:37.524Z,66.34
2022-08-29T08:57:40.237Z,65.87
2022-08-29T08:58:43.240Z,65.26
2022-08-29T08:59:45.883Z,61.98
2022-08-29T09:00:48.900Z,58.55
2022-08-29T09:01:52.161Z,60.38
2022-08-29T09:02:54.879Z,59.76
2022-08-29T09:03:57.790Z,58.65
2022-08-29T09:05:00.455Z,58.82
2022-08-29T09:06:03.128Z,55.27
2022-08-29T09:07:05.691Z,56.57
2022-08-29T09:08:08.264Z,57.05
2022-08-29T09:09:12.052Z,54.66
2022-08-29T09:10:16.160Z,57.11
2022-08-29T09:11:18.931Z,55.94
2022-08-29T09:12:21.496Z,56.95
2022-08-29T09:13:23.988Z,57.35
2022-08-29T09:14:26.494Z,58.04
2022-08-29T09:15:32.831Z,58.18
2022-08-29T09:16:33.958Z,55.07
2022-08-29T09:17:36.804Z,55.57
2022-08-29T09:18:39.480Z,57.29
2022-08-29T09:19:42.119Z,58.54
2022-08-29T09:20:45.403Z,59.37
2022-08-29T09:21:48.281Z,59.60
2022-08-29T09:22:50.847Z,61.99
2022-08-29T09:23:53.419Z,64.41
2022-08-29T09:24:56.084Z,63.18
2022-08-29T09:25:58.650Z,64.71
2022-08-29T09:27:01.748Z,66.38
2022-08-29T09:28:04.359Z,66.75
2022-08-29T09:29:06.965Z,67.14
2022-08-29T09:30:10.353Z,66.75
2022-08-29T09:31:12.925Z,65.10
2022-08-29T09:32:18.948Z,64.98
2022-08-29T09:33:20.100Z,67.32
2022-08-29T09:34:23.137Z,65.65
2022-08-29T09:35:25.823Z,63.43
2022-08-29T09:36:29.028Z,63.06
2022-08-29T09:37:31.705Z,62.65
2022-08-29T09:38:34.326Z,62.25
2022-08-29T09:39:36.935Z,61.53
2022-08-29T09:40:39.858Z,61.86
2022-08-29T09:41:43.051Z,63.57
2022-08-29T09:42:45.764Z,61.56
2022-08-29T09:43:48.287Z,60.76
2022-08-29T09:44:52.736Z,61.99
2022-08-29T09:45:55.381Z,58.98
2022-08-29T09:46:58.570Z,61.33
2022-08-29T09:48:01.563Z,61.12
2022-08-29T09:49:04.235Z,59.06
2022-08-29T09:50:07.212Z,58.99
2022-08-29T09:51:09.844Z,58.88
2022-08-29T09:52:12.447Z,58.49
2022-08-29T09:53:25.103Z,57.01
2022-08-29T09:54:19.627Z,55.65
2022-08-29T09:55:22.295Z,55.07
2022-08-29T09:56:26.603Z,55.43
2022-08-29T09:57:29.274Z,56.41
2022-08-29T09:58:36.208Z,56.13
2022-08-29T09:59:36.725Z,55.74
2022-08-29T10:00:41.425Z,54.73
2022-08-29T10:01:44.288Z,56.06
2022-08-29T10:02:47.322Z,56.60
2022-08-29T10:03:50.819Z,55.83
2022-08-29T10:04:53.816Z,56.43
2022-08-29T10:05:56.327Z,56.24
2022-08-29T10:06:59.133Z,55.14
2022-08-29T10:08:01.708Z,54.45
2022-08-29T10:09:04.374Z,55.09
2022-08-29T10:10:07.514Z,54.61
2022-08-29T10:11:10.084Z,53.63
2022-08-29T10:12:12.647Z,54.26
2022-08-29T10:13:15.473Z,54.86
2022-08-29T10:14:18.228Z,55.80
2022-08-29T10:15:39.908Z,55.22
2022-08-29T10:16:25.392Z,56.35
2022-08-29T10:17:28.293Z,56.49
2022-08-29T10:18:30.951Z,56.83
2022-08-29T10:19:34.546Z,58.84
2022-08-29T10:20:37.416Z,56.00
2022-08-29T10:21:40.198Z,56.66
2022-08-29T10:22:43.205Z,55.76
2022-08-29T10:23:46.038Z,58.26
2022-08-29T10:24:48.606Z,56.05
2022-08-29T10:25:51.208Z,56.94
2022-08-29T10:26:54.004Z,58.37
2022-08-29T10:27:56.490Z,59.25
2022-08-29T10:28:59.078Z,58.66
2022-08-29T10:30:01.854Z,58.53
2022-08-29T10:31:04.625Z,58.59
2022-08-29T10:32:07.245Z,61.43
2022-08-29T10:33:10.172Z,59.07
2022-08-29T10:34:12.793Z,59.25
2022-08-29T10:35:15.454Z,59.32
2022-08-29T10:36:19.403Z,59.22
2022-08-29T10:37:21.927Z,58.64
2022-08-29T10:38:24.534Z,58.96
2022-08-29T10:39:27.064Z,57.14
2022-08-29T10:40:32.089Z,55.28
2022-08-29T10:41:35.167Z,56.21
2022-08-29T10:42:38.079Z,58.00
2022-08-29T10:43:40.651Z,57.36
2022-08-29T10:44:43.214Z,57.58
2022-08-29T10:45:45.825Z,57.75
2022-08-29T10:46:48.509Z,58.97
2022-08-29T10:47:51.118Z,57.83
2022-08-29T10:48:53.595Z,54.92
2022-08-29T10:49:56.520Z,55.14
2022-08-29T10:50:59.536Z,57.27
2022-08-29T10:52:02.060Z,55.41
2022-08-29T10:53:04.608Z,57.65
2022-08-29T10:54:07.779Z,59.31
2022-08-29T10:55:10.315Z,54.83
2022-08-29T10:56:14.120Z,55.51
2022-08-29T10:57:16.779Z,54.56
2022-08-29T10:58:19.451Z,55.00
2022-08-29T10:59:22.016Z,53.79
2022-08-29T11:00:26.017Z,53.78
2022-08-29T11:01:29.050Z,53.35
2022-08-29T11:02:32.173Z,55.92
2022-08-29T11:03:35.012Z,55.22
2022-08-29T11:04:37.925Z,53.78
2022-08-29T11:05:40.591Z,55.34
2022-08-29T11:06:43.635Z,54.08
2022-08-29T11:07:46.198Z,52.59
2022-08-29T11:08:48.803Z,54.70
2022-08-29T11:09:51.591Z,53.10
2022-08-29T11:10:54.551Z,53.23
2022-08-29T11:11:57.226Z,52.02
2022-08-29T11:12:59.894Z,51.28
2022-08-29T11:14:05.852Z,52.42
2022-08-29T11:15:06.979Z,53.19
2022-08-29T11:16:10.759Z,50.67
2022-08-29T11:17:13.703Z,50.04
2022-08-29T11:18:16.619Z,51.14
2022-08-29T11:19:22.661Z,51.18
2022-08-29T11:20:25.542Z,52.74
2022-08-29T11:21:28.311Z,50.63
2022-08-29T11:22:30.879Z,51.74
2022-08-29T11:23:33.751Z,50.12
2022-08-29T11:24:37.988Z,51.94
2022-08-29T11:25:40.850Z,50.23
2022-08-29T11:26:43.500Z,49.86
2022-08-29T11:27:46.198Z,46.70
2022-08-29T11:28:48.840Z,49.54
2022-08-29T11:29:51.404Z,51.43
2022-08-29T11:30:54.450Z,50.64
2022-08-29T11:31:57.200Z,48.96
2022-08-29T11:33:00.134Z,49.06
2022-08-29T11:34:02.767Z,49.46
2022-08-29T11:35:05.370Z,47.79
2022-08-29T11:36:08.754Z,50.21
2022-08-29T11:37:11.419Z,51.47
2022-08-29T11:38:14.006Z,50.43
2022-08-29T11:39:16.529Z,49.67
2022-08-29T11:40:19.680Z,50.30
2022-08-29T11:41:30.069Z,51.46
2022-08-29T11:43:31.437Z,50.35
2022-08-29T11:44:34.102Z,49.76
2022-08-29T11:45:37.434Z,50.15
2022-08-29T11:46:40.508Z,49.19
2022-08-29T11:47:43.338Z,50.78
2022-08-29T11:48:45.909Z,47.82
2022-08-29T11:49:48.443Z,48.64
2022-08-29T11:50:52.002Z,49.22
2022-08-29T11:51:54.935Z,50.83
2022-08-29T11:52:57.460Z,50.81
2022-08-29T11:54:00.070Z,51.25
2022-08-29T11:55:03.863Z,50.47
2022-08-29T11:56:06.843Z,50.17
2022-08-29T11:57:09.520Z,49.26
2022-08-29T11:58:12.590Z,50.40
2022-08-29T11:59:15.260Z,50.12
2022-08-29T12:00:19.477Z,51.51
2022-08-29T12:01:22.221Z,51.08
2022-08-29T12:02:25.333Z,49.21
2022-08-29T12:03:29.061Z,47.85
2022-08-29T12:04:32.228Z,49.01
2022-08-29T12:05:35.372Z,48.35
2022-08-29T12:06:38.159Z,48.17
2022-08-29T12:07:40.813Z,50.34
2022-08-29T12:08:43.485Z,48.31
2022-08-29T12:09:46.157Z,50.53
2022-08-29T12:10:49.165Z,47.91
2022-08-29T12:11:51.795Z,47.19
2022-08-29T12:12:54.377Z,47.08
2022-08-29T12:13:56.935Z,49.87
2022-08-29T12:14:59.499Z,48.75
2022-08-29T12:16:02.232Z,50.30
2022-08-29T12:17:04.852Z,48.05
2022-08-29T12:18:07.503Z,48.14
2022-08-29T12:19:10.176Z,48.59
2022-08-29T12:20:13.769Z,49.48
2022-08-29T12:21:16.843Z,50.74
2022-08-29T12:22:22.523Z,49.29
2022-08-29T12:23:24.440Z,47.62
2022-08-29T12:24:27.620Z,48.80
2022-08-29T12:25:30.288Z,48.67
2022-08-29T12:26:33.160Z,47.95
2022-08-29T12:27:35.832Z,48.56
2022-08-29T12:28:38.407Z,49.53
2022-08-29T12:29:44.681Z,49.33
2022-08-29T12:30:45.989Z,48.90
2022-08-29T12:32:02.341Z,49.02
2022-08-29T12:32:53.491Z,48.85
2022-08-29T12:33:56.147Z,47.83
2022-08-29T12:34:59.465Z,49.35
2022-08-29T12:36:02.004Z,46.81
2022-08-29T12:37:04.669Z,44.34
2022-08-29T12:38:07.236Z,49.39
2022-08-29T12:39:09.800Z,46.96
2022-08-29T12:40:13.524Z,45.99
2022-08-29T12:41:16.676Z,45.48
2022-08-29T12:42:19.350Z,45.33
2022-08-29T12:43:21.972Z,45.36
2022-08-29T12:44:24.588Z,46.79
2022-08-29T12:45:27.352Z,45.83
2022-08-29T12:46:30.385Z,47.53
2022-08-29T12:47:33.635Z,47.69
2022-08-29T12:48:36.591Z,48.20
2022-08-29T12:49:39.162Z,47.23
2022-08-29T12:50:41.887Z,47.27
2022-08-29T12:51:44.496Z,46.34
2022-08-29T12:52:47.065Z,46.70
2022-08-29T12:53:49.733Z,47.40
2022-08-29T12:54:56.331Z,47.27
2022-08-29T12:55:57.223Z,47.51
2022-08-29T12:57:00.402Z,48.24
2022-08-29T12:58:03.100Z,49.86
2022-08-29T12:59:05.846Z,49.43
2022-08-29T13:01:21.655Z,49.67
2022-08-29T13:02:24.329Z,47.86
2022-08-29T13:03:27.471Z,48.87
2022-08-29T13:04:31.995Z,48.88
2022-08-29T13:05:34.676Z,49.17
2022-08-29T13:06:37.952Z,48.04
2022-08-29T13:07:40.477Z,47.80
2022-08-29T13:08:43.380Z,48.13
2022-08-29T13:09:46.070Z,48.38
2022-08-29T13:10:48.924Z,47.74
2022-08-29T13:11:51.553Z,48.39
2022-08-29T13:12:54.156Z,48.99
2022-08-29T13:13:56.725Z,46.80
2022-08-29T13:14:59.292Z,48.08
2022-08-29T13:16:01.999Z,49.40
2022-08-29T13:17:04.996Z,49.38
2022-08-29T13:18:07.612Z,51.55
2022-08-29T13:19:11.646Z,51.11
2022-08-29T13:20:15.195Z,50.68